sensor_id;sensor_type;location;lat;lon;timestamp;P1;durP1;ratioP1;P2;durP2;ratioP2
12228;SDS011;6177;52.402;9.800;2024-03-02T00:00:36;9.23;;;8.63;;
12228;SDS011;6177;52.402;9.800;2024-03-02T00:03:01;10.37;;;9.63;;
12228;SDS011;6177;52.402;9.800;2024-03-02T00:05:27;9.87;;;9.17;;
12228;SDS011;6177;52.402;9.800;2024-03-02T00:07:54;9.47;;;8.77;;
12228;SDS011;6177;52.402;9.800;2024-03-02T00:10:21;9.50;;;8.80;;
12228;SDS011;6177;52.402;9.800;2024-03-02T00:12:55;10.30;;;9.40;;
12228;SDS011;6177;52.402;9.800;2024-03-02T00:18:02;10.07;;;9.30;;
12228;SDS011;6177;52.402;9.800;2024-03-02T00:20:29;10.30;;;9.50;;
12228;SDS011;6177;52.402;9.800;2024-03-02T00:23:05;10.17;;;9.37;;
12228;SDS011;6177;52.402;9.800;2024-03-02T00:28:11;10.40;;;9.53;;
12228;SDS011;6177;52.402;9.800;2024-03-02T00:33:20;9.57;;;8.77;;
12228;SDS011;6177;52.402;9.800;2024-03-02T00:35:46;10.33;;;9.47;;
12228;SDS011;6177;52.402;9.800;2024-03-02T00:38:12;9.90;;;9.20;;
12228;SDS011;6177;52.402;9.800;2024-03-02T00:40:39;9.77;;;9.07;;
12228;SDS011;6177;52.402;9.800;2024-03-02T00:43:05;10.00;;;9.20;;
12228;SDS011;6177;52.402;9.800;2024-03-02T00:45:30;9.67;;;8.87;;
12228;SDS011;6177;52.402;9.800;2024-03-02T00:47:57;10.40;;;9.53;;
12228;SDS011;6177;52.402;9.800;2024-03-02T00:50:22;11.17;;;10.27;;
12228;SDS011;6177;52.402;9.800;2024-03-02T00:52:48;10.97;;;9.97;;
12228;SDS011;6177;52.402;9.800;2024-03-02T00:55:14;10.10;;;9.27;;
12228;SDS011;6177;52.402;9.800;2024-03-02T00:57:40;10.30;;;9.50;;
12228;SDS011;6177;52.402;9.800;2024-03-02T01:00:06;10.53;;;9.63;;
12228;SDS011;6177;52.402;9.800;2024-03-02T01:02:35;10.27;;;9.43;;
12228;SDS011;6177;52.402;9.800;2024-03-02T01:05:01;10.33;;;9.43;;
12228;SDS011;6177;52.402;9.800;2024-03-02T01:07:26;10.50;;;9.70;;
12228;SDS011;6177;52.402;9.800;2024-03-02T01:09:52;11.27;;;10.37;;
12228;SDS011;6177;52.402;9.800;2024-03-02T01:12:17;12.03;;;11.00;;
12228;SDS011;6177;52.402;9.800;2024-03-02T01:14:43;11.80;;;10.80;;
12228;SDS011;6177;52.402;9.800;2024-03-02T01:17:08;11.30;;;10.20;;
12228;SDS011;6177;52.402;9.800;2024-03-02T01:19:34;10.70;;;9.87;;
12228;SDS011;6177;52.402;9.800;2024-03-02T01:21:59;10.97;;;10.13;;
12228;SDS011;6177;52.402;9.800;2024-03-02T01:24:25;11.83;;;10.83;;
12228;SDS011;6177;52.402;9.800;2024-03-02T01:26:50;12.13;;;11.13;;
12228;SDS011;6177;52.402;9.800;2024-03-02T01:29:16;12.50;;;11.40;;
12228;SDS011;6177;52.402;9.800;2024-03-02T01:31:41;12.50;;;11.40;;
12228;SDS011;6177;52.402;9.800;2024-03-02T01:34:08;13.80;;;11.90;;
12228;SDS011;6177;52.402;9.800;2024-03-02T01:36:34;12.43;;;11.43;;
12228;SDS011;6177;52.402;9.800;2024-03-02T01:39:00;11.83;;;10.87;;
12228;SDS011;6177;52.402;9.800;2024-03-02T01:41:26;13.40;;;12.23;;
12228;SDS011;6177;52.402;9.800;2024-03-02T01:43:51;13.10;;;12.00;;
12228;SDS011;6177;52.402;9.800;2024-03-02T01:46:17;14.17;;;12.63;;
12228;SDS011;6177;52.402;9.800;2024-03-02T01:48:42;13.70;;;12.53;;
12228;SDS011;6177;52.402;9.800;2024-03-02T01:51:08;13.90;;;12.63;;
12228;SDS011;6177;52.402;9.800;2024-03-02T01:53:34;13.17;;;11.93;;
12228;SDS011;6177;52.402;9.800;2024-03-02T01:56:00;14.00;;;12.80;;
12228;SDS011;6177;52.402;9.800;2024-03-02T01:58:27;14.20;;;13.00;;
12228;SDS011;6177;52.402;9.800;2024-03-02T02:00:53;14.13;;;12.93;;
12228;SDS011;6177;52.402;9.800;2024-03-02T02:03:18;14.70;;;13.30;;
12228;SDS011;6177;52.402;9.800;2024-03-02T02:05:44;14.37;;;13.17;;
12228;SDS011;6177;52.402;9.800;2024-03-02T02:08:11;14.17;;;12.87;;
12228;SDS011;6177;52.402;9.800;2024-03-02T02:10:36;13.97;;;12.67;;
12228;SDS011;6177;52.402;9.800;2024-03-02T02:13:02;15.33;;;13.73;;
12228;SDS011;6177;52.402;9.800;2024-03-02T02:15:28;15.97;;;14.47;;
12228;SDS011;6177;52.402;9.800;2024-03-02T02:17:55;15.23;;;13.73;;
12228;SDS011;6177;52.402;9.800;2024-03-02T02:20:21;14.87;;;13.57;;
12228;SDS011;6177;52.402;9.800;2024-03-02T02:25:28;15.47;;;14.07;;
12228;SDS011;6177;52.402;9.800;2024-03-02T02:27:55;15.93;;;14.53;;
12228;SDS011;6177;52.402;9.800;2024-03-02T02:30:25;15.73;;;14.13;;
12228;SDS011;6177;52.402;9.800;2024-03-02T02:32:52;16.07;;;14.50;;
12228;SDS011;6177;52.402;9.800;2024-03-02T02:35:18;15.43;;;13.93;;
12228;SDS011;6177;52.402;9.800;2024-03-02T02:37:44;15.70;;;14.20;;
12228;SDS011;6177;52.402;9.800;2024-03-02T02:40:11;16.43;;;14.83;;
12228;SDS011;6177;52.402;9.800;2024-03-02T02:42:37;16.80;;;15.10;;
12228;SDS011;6177;52.402;9.800;2024-03-02T02:45:04;17.57;;;15.77;;
12228;SDS011;6177;52.402;9.800;2024-03-02T02:47:30;16.20;;;14.70;;
12228;SDS011;6177;52.402;9.800;2024-03-02T02:49:56;16.67;;;15.13;;
12228;SDS011;6177;52.402;9.800;2024-03-02T02:52:22;17.20;;;15.30;;
12228;SDS011;6177;52.402;9.800;2024-03-02T02:54:47;15.93;;;14.43;;
12228;SDS011;6177;52.402;9.800;2024-03-02T02:57:13;17.13;;;15.47;;
12228;SDS011;6177;52.402;9.800;2024-03-02T02:59:38;17.13;;;15.43;;
12228;SDS011;6177;52.402;9.800;2024-03-02T03:02:04;15.90;;;14.43;;
12228;SDS011;6177;52.402;9.800;2024-03-02T03:04:30;16.90;;;15.10;;
12228;SDS011;6177;52.402;9.800;2024-03-02T03:06:55;16.00;;;14.50;;
12228;SDS011;6177;52.402;9.800;2024-03-02T03:09:21;14.87;;;13.47;;
12228;SDS011;6177;52.402;9.800;2024-03-02T03:11:46;17.27;;;15.57;;
12228;SDS011;6177;52.402;9.800;2024-03-02T03:14:12;15.73;;;14.23;;
12228;SDS011;6177;52.402;9.800;2024-03-02T03:16:37;15.50;;;13.90;;
12228;SDS011;6177;52.402;9.800;2024-03-02T03:19:03;15.30;;;13.70;;
12228;SDS011;6177;52.402;9.800;2024-03-02T03:21:28;15.43;;;13.87;;
12228;SDS011;6177;52.402;9.800;2024-03-02T03:23:54;16.67;;;14.87;;
12228;SDS011;6177;52.402;9.800;2024-03-02T03:26:24;15.50;;;13.90;;
12228;SDS011;6177;52.402;9.800;2024-03-02T03:28:50;15.53;;;14.03;;
12228;SDS011;6177;52.402;9.800;2024-03-02T03:31:15;15.30;;;13.87;;
12228;SDS011;6177;52.402;9.800;2024-03-02T03:33:41;15.70;;;14.23;;
12228;SDS011;6177;52.402;9.800;2024-03-02T03:36:06;15.70;;;14.10;;
12228;SDS011;6177;52.402;9.800;2024-03-02T03:38:32;15.67;;;14.20;;
12228;SDS011;6177;52.402;9.800;2024-03-02T03:40:57;15.93;;;14.27;;
12228;SDS011;6177;52.402;9.800;2024-03-02T03:43:23;15.37;;;13.83;;
12228;SDS011;6177;52.402;9.800;2024-03-02T03:45:49;14.90;;;13.27;;
12228;SDS011;6177;52.402;9.800;2024-03-02T03:48:15;14.23;;;12.83;;
12228;SDS011;6177;52.402;9.800;2024-03-02T03:50:41;14.63;;;13.13;;
12228;SDS011;6177;52.402;9.800;2024-03-02T03:53:06;14.47;;;13.03;;
12228;SDS011;6177;52.402;9.800;2024-03-02T03:55:32;14.13;;;12.73;;
12228;SDS011;6177;52.402;9.800;2024-03-02T03:57:57;14.00;;;12.70;;
12228;SDS011;6177;52.402;9.800;2024-03-02T04:00:23;14.60;;;13.20;;
12228;SDS011;6177;52.402;9.800;2024-03-02T04:02:48;15.50;;;14.03;;
12228;SDS011;6177;52.402;9.800;2024-03-02T04:05:14;15.60;;;14.00;;
12228;SDS011;6177;52.402;9.800;2024-03-02T04:07:39;15.90;;;14.30;;
12228;SDS011;6177;52.402;9.800;2024-03-02T04:10:14;12.93;;;11.70;;
12228;SDS011;6177;52.402;9.800;2024-03-02T04:12:42;14.40;;;12.90;;
12228;SDS011;6177;52.402;9.800;2024-03-02T04:15:08;14.53;;;13.13;;
12228;SDS011;6177;52.402;9.800;2024-03-02T04:17:33;14.80;;;13.40;;
12228;SDS011;6177;52.402;9.800;2024-03-02T04:20:01;15.87;;;14.37;;
12228;SDS011;6177;52.402;9.800;2024-03-02T04:22:29;15.57;;;13.97;;
12228;SDS011;6177;52.402;9.800;2024-03-02T04:24:55;15.83;;;14.33;;
12228;SDS011;6177;52.402;9.800;2024-03-02T04:27:20;16.03;;;14.43;;
12228;SDS011;6177;52.402;9.800;2024-03-02T04:29:46;16.73;;;15.03;;
12228;SDS011;6177;52.402;9.800;2024-03-02T04:32:11;16.30;;;14.83;;
12228;SDS011;6177;52.402;9.800;2024-03-02T04:34:37;16.77;;;14.43;;
12228;SDS011;6177;52.402;9.800;2024-03-02T04:37:02;16.87;;;15.17;;
12228;SDS011;6177;52.402;9.800;2024-03-02T04:39:28;15.13;;;13.73;;
12228;SDS011;6177;52.402;9.800;2024-03-02T04:41:53;16.20;;;14.50;;
12228;SDS011;6177;52.402;9.800;2024-03-02T04:44:19;16.20;;;14.70;;
12228;SDS011;6177;52.402;9.800;2024-03-02T04:46:45;16.10;;;14.53;;
12228;SDS011;6177;52.402;9.800;2024-03-02T04:49:11;16.60;;;15.00;;
12228;SDS011;6177;52.402;9.800;2024-03-02T04:51:36;16.03;;;14.57;;
12228;SDS011;6177;52.402;9.800;2024-03-02T04:54:02;15.87;;;14.27;;
12228;SDS011;6177;52.402;9.800;2024-03-02T04:56:27;15.93;;;14.27;;
12228;SDS011;6177;52.402;9.800;2024-03-02T04:59:09;16.53;;;14.83;;
12228;SDS011;6177;52.402;9.800;2024-03-02T05:01:35;16.60;;;14.83;;
12228;SDS011;6177;52.402;9.800;2024-03-02T05:04:01;17.17;;;15.47;;
12228;SDS011;6177;52.402;9.800;2024-03-02T05:06:26;16.57;;;14.97;;
12228;SDS011;6177;52.402;9.800;2024-03-02T05:08:52;17.40;;;15.67;;
12228;SDS011;6177;52.402;9.800;2024-03-02T05:11:18;17.50;;;15.70;;
12228;SDS011;6177;52.402;9.800;2024-03-02T05:14:02;17.47;;;15.77;;
12228;SDS011;6177;52.402;9.800;2024-03-02T05:16:27;16.93;;;15.23;;
12228;SDS011;6177;52.402;9.800;2024-03-02T05:18:53;17.77;;;16.07;;
12228;SDS011;6177;52.402;9.800;2024-03-02T05:21:18;18.00;;;16.10;;
12228;SDS011;6177;52.402;9.800;2024-03-02T05:23:44;16.77;;;15.17;;
12228;SDS011;6177;52.402;9.800;2024-03-02T05:26:09;17.53;;;15.73;;
12228;SDS011;6177;52.402;9.800;2024-03-02T05:28:38;17.67;;;15.97;;
12228;SDS011;6177;52.402;9.800;2024-03-02T05:31:04;18.47;;;16.57;;
12228;SDS011;6177;52.402;9.800;2024-03-02T05:33:29;19.23;;;17.33;;
12228;SDS011;6177;52.402;9.800;2024-03-02T05:35:57;19.73;;;17.43;;
12228;SDS011;6177;52.402;9.800;2024-03-02T05:38:22;19.80;;;17.67;;
12228;SDS011;6177;52.402;9.800;2024-03-02T05:40:50;19.33;;;17.43;;
12228;SDS011;6177;52.402;9.800;2024-03-02T05:43:16;20.07;;;18.07;;
12228;SDS011;6177;52.402;9.800;2024-03-02T05:45:42;19.40;;;17.17;;
12228;SDS011;6177;52.402;9.800;2024-03-02T05:48:07;20.33;;;18.27;;
12228;SDS011;6177;52.402;9.800;2024-03-02T05:50:33;19.70;;;17.77;;
12228;SDS011;6177;52.402;9.800;2024-03-02T05:52:58;20.63;;;18.53;;
12228;SDS011;6177;52.402;9.800;2024-03-02T05:55:24;21.53;;;19.23;;
12228;SDS011;6177;52.402;9.800;2024-03-02T05:57:50;21.60;;;19.27;;
12228;SDS011;6177;52.402;9.800;2024-03-02T06:00:34;20.30;;;18.30;;
12228;SDS011;6177;52.402;9.800;2024-03-02T06:03:00;20.90;;;18.67;;
12228;SDS011;6177;52.402;9.800;2024-03-02T06:05:25;20.07;;;18.07;;
12228;SDS011;6177;52.402;9.800;2024-03-02T06:07:51;21.70;;;19.43;;
12228;SDS011;6177;52.402;9.800;2024-03-02T06:10:19;22.20;;;19.30;;
12228;SDS011;6177;52.402;9.800;2024-03-02T06:12:46;21.70;;;19.40;;
12228;SDS011;6177;52.402;9.800;2024-03-02T06:15:11;21.10;;;19.00;;
12228;SDS011;6177;52.402;9.800;2024-03-02T06:17:37;51.47;;;46.13;;
12228;SDS011;6177;52.402;9.800;2024-03-02T06:20:02;35.37;;;31.60;;
12228;SDS011;6177;52.402;9.800;2024-03-02T06:22:28;21.93;;;19.63;;
12228;SDS011;6177;52.402;9.800;2024-03-02T06:24:54;23.00;;;19.80;;
12228;SDS011;6177;52.402;9.800;2024-03-02T06:27:20;21.27;;;19.17;;
12228;SDS011;6177;52.402;9.800;2024-03-02T06:29:45;21.50;;;19.33;;
12228;SDS011;6177;52.402;9.800;2024-03-02T06:32:11;22.00;;;19.77;;
12228;SDS011;6177;52.402;9.800;2024-03-02T06:34:36;21.30;;;19.20;;
12228;SDS011;6177;52.402;9.800;2024-03-02T06:37:02;25.73;;;23.00;;
12228;SDS011;6177;52.402;9.800;2024-03-02T06:39:27;22.77;;;20.57;;
12228;SDS011;6177;52.402;9.800;2024-03-02T06:41:53;43.13;;;38.67;;
12228;SDS011;6177;52.402;9.800;2024-03-02T06:44:18;22.53;;;20.13;;
12228;SDS011;6177;52.402;9.800;2024-03-02T06:46:46;22.30;;;19.93;;
12228;SDS011;6177;52.402;9.800;2024-03-02T06:49:11;20.23;;;18.20;;
12228;SDS011;6177;52.402;9.800;2024-03-02T06:51:37;20.47;;;18.50;;
12228;SDS011;6177;52.402;9.800;2024-03-02T06:54:02;21.53;;;19.43;;
12228;SDS011;6177;52.402;9.800;2024-03-02T06:56:28;21.53;;;19.23;;
12228;SDS011;6177;52.402;9.800;2024-03-02T06:58:56;21.30;;;19.10;;
12228;SDS011;6177;52.402;9.800;2024-03-02T07:01:22;66.60;;;59.47;;
12228;SDS011;6177;52.402;9.800;2024-03-02T07:03:47;23.70;;;21.20;;
12228;SDS011;6177;52.402;9.800;2024-03-02T07:06:13;22.03;;;19.83;;
12228;SDS011;6177;52.402;9.800;2024-03-02T07:08:39;20.93;;;18.83;;
12228;SDS011;6177;52.402;9.800;2024-03-02T07:11:04;21.10;;;19.10;;
12228;SDS011;6177;52.402;9.800;2024-03-02T07:13:29;20.30;;;18.03;;
12228;SDS011;6177;52.402;9.800;2024-03-02T07:15:55;20.23;;;18.33;;
12228;SDS011;6177;52.402;9.800;2024-03-02T07:18:35;20.83;;;18.77;;
12228;SDS011;6177;52.402;9.800;2024-03-02T07:21:07;21.60;;;19.37;;
12228;SDS011;6177;52.402;9.800;2024-03-02T07:23:32;20.87;;;18.87;;
12228;SDS011;6177;52.402;9.800;2024-03-02T07:25:59;28.43;;;25.47;;
12228;SDS011;6177;52.402;9.800;2024-03-02T07:28:26;25.63;;;23.03;;
12228;SDS011;6177;52.402;9.800;2024-03-02T07:31:02;19.57;;;17.70;;
12228;SDS011;6177;52.402;9.800;2024-03-02T07:33:30;18.80;;;16.90;;
12228;SDS011;6177;52.402;9.800;2024-03-02T07:35:57;18.70;;;16.90;;
12228;SDS011;6177;52.402;9.800;2024-03-02T07:38:24;19.23;;;17.43;;
12228;SDS011;6177;52.402;9.800;2024-03-02T07:40:50;18.53;;;16.80;;
12228;SDS011;6177;52.402;9.800;2024-03-02T07:43:18;18.87;;;16.87;;
12228;SDS011;6177;52.402;9.800;2024-03-02T07:45:44;18.33;;;16.63;;
12228;SDS011;6177;52.402;9.800;2024-03-02T07:48:10;18.97;;;17.23;;
12228;SDS011;6177;52.402;9.800;2024-03-02T07:50:36;17.80;;;16.20;;
12228;SDS011;6177;52.402;9.800;2024-03-02T07:53:02;18.63;;;16.83;;
12228;SDS011;6177;52.402;9.800;2024-03-02T07:55:29;18.13;;;16.40;;
12228;SDS011;6177;52.402;9.800;2024-03-02T07:57:55;17.67;;;15.77;;
12228;SDS011;6177;52.402;9.800;2024-03-02T08:00:21;18.07;;;16.43;;
12228;SDS011;6177;52.402;9.800;2024-03-02T08:02:48;18.80;;;17.00;;
12228;SDS011;6177;52.402;9.800;2024-03-02T08:05:16;16.53;;;15.13;;
12228;SDS011;6177;52.402;9.800;2024-03-02T08:07:44;17.23;;;15.63;;
12228;SDS011;6177;52.402;9.800;2024-03-02T08:10:10;17.70;;;16.00;;
12228;SDS011;6177;52.402;9.800;2024-03-02T08:12:36;17.80;;;16.17;;
12228;SDS011;6177;52.402;9.800;2024-03-02T08:15:01;16.77;;;15.17;;
12228;SDS011;6177;52.402;9.800;2024-03-02T08:17:27;18.17;;;16.47;;
12228;SDS011;6177;52.402;9.800;2024-03-02T08:19:53;17.40;;;15.67;;
12228;SDS011;6177;52.402;9.800;2024-03-02T08:22:19;17.03;;;15.33;;
12228;SDS011;6177;52.402;9.800;2024-03-02T08:24:45;17.67;;;15.97;;
12228;SDS011;6177;52.402;9.800;2024-03-02T08:27:10;18.27;;;16.33;;
12228;SDS011;6177;52.402;9.800;2024-03-02T08:29:37;17.27;;;15.73;;
12228;SDS011;6177;52.402;9.800;2024-03-02T08:32:02;16.23;;;14.73;;
12228;SDS011;6177;52.402;9.800;2024-03-02T08:34:28;16.43;;;14.83;;
12228;SDS011;6177;52.402;9.800;2024-03-02T08:36:54;16.90;;;15.30;;
12228;SDS011;6177;52.402;9.800;2024-03-02T08:39:19;15.40;;;14.03;;
12228;SDS011;6177;52.402;9.800;2024-03-02T08:41:45;16.53;;;14.90;;
12228;SDS011;6177;52.402;9.800;2024-03-02T08:44:11;14.57;;;13.20;;
12228;SDS011;6177;52.402;9.800;2024-03-02T08:46:38;14.80;;;13.40;;
12228;SDS011;6177;52.402;9.800;2024-03-02T08:49:04;15.20;;;13.60;;
12228;SDS011;6177;52.402;9.800;2024-03-02T08:51:30;14.20;;;12.90;;
12228;SDS011;6177;52.402;9.800;2024-03-02T08:53:55;13.60;;;12.30;;
12228;SDS011;6177;52.402;9.800;2024-03-02T08:56:21;13.63;;;12.33;;
12228;SDS011;6177;52.402;9.800;2024-03-02T08:58:49;14.50;;;13.30;;
12228;SDS011;6177;52.402;9.800;2024-03-02T09:01:16;13.57;;;12.47;;
12228;SDS011;6177;52.402;9.800;2024-03-02T09:03:46;14.40;;;12.87;;
12228;SDS011;6177;52.402;9.800;2024-03-02T09:06:12;14.03;;;12.83;;
12228;SDS011;6177;52.402;9.800;2024-03-02T09:08:40;13.23;;;12.13;;
12228;SDS011;6177;52.402;9.800;2024-03-02T09:11:06;12.50;;;11.40;;
12228;SDS011;6177;52.402;9.800;2024-03-02T09:13:32;12.03;;;11.03;;
12228;SDS011;6177;52.402;9.800;2024-03-02T09:15:58;12.60;;;11.53;;
12228;SDS011;6177;52.402;9.800;2024-03-02T09:18:23;11.80;;;10.63;;
12228;SDS011;6177;52.402;9.800;2024-03-02T09:20:49;11.37;;;10.47;;
12228;SDS011;6177;52.402;9.800;2024-03-02T09:23:15;12.70;;;11.60;;
12228;SDS011;6177;52.402;9.800;2024-03-02T09:25:40;12.20;;;11.10;;
12228;SDS011;6177;52.402;9.800;2024-03-02T09:28:06;12.20;;;11.20;;
12228;SDS011;6177;52.402;9.800;2024-03-02T09:30:32;11.63;;;10.60;;
12228;SDS011;6177;52.402;9.800;2024-03-02T09:32:58;11.80;;;10.80;;
12228;SDS011;6177;52.402;9.800;2024-03-02T09:35:24;11.97;;;10.90;;
12228;SDS011;6177;52.402;9.800;2024-03-02T09:37:49;11.43;;;10.53;;
12228;SDS011;6177;52.402;9.800;2024-03-02T09:40:15;12.67;;;11.53;;
12228;SDS011;6177;52.402;9.800;2024-03-02T09:42:41;11.00;;;10.00;;
12228;SDS011;6177;52.402;9.800;2024-03-02T09:45:08;11.67;;;10.53;;
12228;SDS011;6177;52.402;9.800;2024-03-02T09:47:35;11.47;;;10.47;;
12228;SDS011;6177;52.402;9.800;2024-03-02T09:50:01;12.10;;;11.03;;
12228;SDS011;6177;52.402;9.800;2024-03-02T09:52:26;11.73;;;10.73;;
12228;SDS011;6177;52.402;9.800;2024-03-02T09:54:53;11.57;;;10.47;;
12228;SDS011;6177;52.402;9.800;2024-03-02T09:57:18;10.83;;;9.93;;
12228;SDS011;6177;52.402;9.800;2024-03-02T09:59:44;12.27;;;11.17;;
12228;SDS011;6177;52.402;9.800;2024-03-02T10:02:10;11.03;;;9.97;;
12228;SDS011;6177;52.402;9.800;2024-03-02T10:04:36;10.63;;;9.83;;
12228;SDS011;6177;52.402;9.800;2024-03-02T10:07:11;11.40;;;10.37;;
12228;SDS011;6177;52.402;9.800;2024-03-02T10:09:41;11.40;;;10.40;;
12228;SDS011;6177;52.402;9.800;2024-03-02T10:12:08;10.63;;;9.77;;
12228;SDS011;6177;52.402;9.800;2024-03-02T10:14:35;10.83;;;9.93;;
12228;SDS011;6177;52.402;9.800;2024-03-02T10:17:04;10.47;;;9.57;;
12228;SDS011;6177;52.402;9.800;2024-03-02T10:19:31;10.90;;;10.00;;
12228;SDS011;6177;52.402;9.800;2024-03-02T10:22:00;10.80;;;9.87;;
12228;SDS011;6177;52.402;9.800;2024-03-02T10:24:28;10.83;;;9.13;;
12228;SDS011;6177;52.402;9.800;2024-03-02T10:27:01;10.73;;;9.63;;
12228;SDS011;6177;52.402;9.800;2024-03-02T10:29:29;10.80;;;9.90;;
12228;SDS011;6177;52.402;9.800;2024-03-02T10:31:55;9.87;;;9.07;;
12228;SDS011;6177;52.402;9.800;2024-03-02T10:34:21;10.93;;;10.03;;
12228;SDS011;6177;52.402;9.800;2024-03-02T10:36:47;10.23;;;9.43;;
12228;SDS011;6177;52.402;9.800;2024-03-02T10:39:13;9.68;;;8.88;;
12228;SDS011;6177;52.402;9.800;2024-03-02T10:41:39;8.80;;;8.10;;
12228;SDS011;6177;52.402;9.800;2024-03-02T10:44:06;11.43;;;9.50;;
12228;SDS011;6177;52.402;9.800;2024-03-02T10:46:35;8.98;;;8.27;;
12228;SDS011;6177;52.402;9.800;2024-03-02T10:49:03;8.90;;;8.20;;
12228;SDS011;6177;52.402;9.800;2024-03-02T10:51:30;8.38;;;7.78;;
12228;SDS011;6177;52.402;9.800;2024-03-02T10:54:00;8.80;;;8.15;;
12228;SDS011;6177;52.402;9.800;2024-03-02T10:59:03;8.52;;;7.82;;
12228;SDS011;6177;52.402;9.800;2024-03-02T11:01:31;8.75;;;7.97;;
12228;SDS011;6177;52.402;9.800;2024-03-02T11:03:58;8.32;;;7.57;;
12228;SDS011;6177;52.402;9.800;2024-03-02T11:06:24;6.57;;;6.07;;
12228;SDS011;6177;52.402;9.800;2024-03-02T11:08:52;7.75;;;7.13;;
12228;SDS011;6177;52.402;9.800;2024-03-02T11:11:21;7.78;;;7.20;;
12228;SDS011;6177;52.402;9.800;2024-03-02T11:13:54;7.22;;;6.63;;
12228;SDS011;6177;52.402;9.800;2024-03-02T11:16:27;7.35;;;6.85;;
12228;SDS011;6177;52.402;9.800;2024-03-02T11:19:01;6.75;;;6.25;;
12228;SDS011;6177;52.402;9.800;2024-03-02T11:21:32;6.73;;;6.23;;
12228;SDS011;6177;52.402;9.800;2024-03-02T11:23:58;6.68;;;6.25;;
12228;SDS011;6177;52.402;9.800;2024-03-02T11:26:24;6.72;;;6.22;;
12228;SDS011;6177;52.402;9.800;2024-03-02T11:28:50;6.57;;;5.97;;
12228;SDS011;6177;52.402;9.800;2024-03-02T11:31:16;5.90;;;5.50;;
12228;SDS011;6177;52.402;9.800;2024-03-02T11:33:42;5.80;;;5.40;;
12228;SDS011;6177;52.402;9.800;2024-03-02T11:36:09;6.00;;;5.57;;
12228;SDS011;6177;52.402;9.800;2024-03-02T11:38:34;5.88;;;5.47;;
12228;SDS011;6177;52.402;9.800;2024-03-02T11:41:01;5.57;;;5.28;;
12228;SDS011;6177;52.402;9.800;2024-03-02T11:43:28;5.32;;;5.03;;
12228;SDS011;6177;52.402;9.800;2024-03-02T11:45:58;6.03;;;5.63;;
12228;SDS011;6177;52.402;9.800;2024-03-02T11:48:25;5.22;;;4.82;;
12228;SDS011;6177;52.402;9.800;2024-03-02T11:50:50;5.25;;;4.85;;
12228;SDS011;6177;52.402;9.800;2024-03-02T11:53:16;5.22;;;4.82;;
12228;SDS011;6177;52.402;9.800;2024-03-02T11:55:43;5.30;;;4.95;;
12228;SDS011;6177;52.402;9.800;2024-03-02T11:58:12;5.78;;;5.38;;
12228;SDS011;6177;52.402;9.800;2024-03-02T12:00:37;5.70;;;5.05;;
12228;SDS011;6177;52.402;9.800;2024-03-02T12:03:04;5.22;;;4.82;;
12228;SDS011;6177;52.402;9.800;2024-03-02T12:05:31;5.63;;;5.05;;
12228;SDS011;6177;52.402;9.800;2024-03-02T12:07:58;5.53;;;5.10;;
12228;SDS011;6177;52.402;9.800;2024-03-02T12:10:27;6.43;;;5.93;;
12228;SDS011;6177;52.402;9.800;2024-03-02T12:15:28;5.85;;;5.43;;
12228;SDS011;6177;52.402;9.800;2024-03-02T12:17:56;6.45;;;5.95;;
12228;SDS011;6177;52.402;9.800;2024-03-02T12:20:23;5.88;;;5.53;;
12228;SDS011;6177;52.402;9.800;2024-03-02T12:22:50;5.65;;;5.20;;
12228;SDS011;6177;52.402;9.800;2024-03-02T12:25:17;5.90;;;5.60;;
12228;SDS011;6177;52.402;9.800;2024-03-02T12:27:44;5.68;;;5.28;;
12228;SDS011;6177;52.402;9.800;2024-03-02T12:30:11;5.40;;;5.00;;
12228;SDS011;6177;52.402;9.800;2024-03-02T12:32:39;4.75;;;4.45;;
12228;SDS011;6177;52.402;9.800;2024-03-02T12:35:05;4.85;;;4.55;;
12228;SDS011;6177;52.402;9.800;2024-03-02T12:37:31;4.90;;;4.50;;
12228;SDS011;6177;52.402;9.800;2024-03-02T12:39:57;4.97;;;4.68;;
12228;SDS011;6177;52.402;9.800;2024-03-02T12:42:25;4.88;;;4.55;;
12228;SDS011;6177;52.402;9.800;2024-03-02T12:44:52;4.70;;;4.40;;
12228;SDS011;6177;52.402;9.800;2024-03-02T12:47:20;5.82;;;4.50;;
12228;SDS011;6177;52.402;9.800;2024-03-02T12:49:46;3.72;;;3.53;;
12228;SDS011;6177;52.402;9.800;2024-03-02T12:52:12;3.60;;;3.40;;
12228;SDS011;6177;52.402;9.800;2024-03-02T12:54:43;3.63;;;3.42;;
12228;SDS011;6177;52.402;9.800;2024-03-02T12:57:09;3.50;;;3.40;;
12228;SDS011;6177;52.402;9.800;2024-03-02T12:59:34;3.30;;;3.20;;
12228;SDS011;6177;52.402;9.800;2024-03-02T13:02:00;3.60;;;3.40;;
12228;SDS011;6177;52.402;9.800;2024-03-02T13:04:30;3.63;;;3.40;;
12228;SDS011;6177;52.402;9.800;2024-03-02T13:06:56;3.50;;;3.30;;
12228;SDS011;6177;52.402;9.800;2024-03-02T13:09:23;3.92;;;3.72;;
12228;SDS011;6177;52.402;9.800;2024-03-02T13:11:49;3.80;;;3.60;;
12228;SDS011;6177;52.402;9.800;2024-03-02T13:14:14;3.83;;;3.53;;
12228;SDS011;6177;52.402;9.800;2024-03-02T13:16:40;3.40;;;3.10;;
12228;SDS011;6177;52.402;9.800;2024-03-02T13:19:12;3.70;;;3.40;;
12228;SDS011;6177;52.402;9.800;2024-03-02T13:21:38;5.72;;;4.43;;
12228;SDS011;6177;52.402;9.800;2024-03-02T13:24:04;4.35;;;4.05;;
12228;SDS011;6177;52.402;9.800;2024-03-02T13:26:30;3.78;;;3.58;;
12228;SDS011;6177;52.402;9.800;2024-03-02T13:28:59;3.38;;;3.17;;
12228;SDS011;6177;52.402;9.800;2024-03-02T13:31:24;2.72;;;2.63;;
12228;SDS011;6177;52.402;9.800;2024-03-02T13:33:50;3.88;;;3.67;;
12228;SDS011;6177;52.402;9.800;2024-03-02T13:36:16;3.60;;;3.40;;
12228;SDS011;6177;52.402;9.800;2024-03-02T13:38:43;3.88;;;3.67;;
12228;SDS011;6177;52.402;9.800;2024-03-02T13:41:09;14.48;;;13.13;;
12228;SDS011;6177;52.402;9.800;2024-03-02T13:43:36;3.85;;;3.65;;
12228;SDS011;6177;52.402;9.800;2024-03-02T13:46:04;4.22;;;3.28;;
12228;SDS011;6177;52.402;9.800;2024-03-02T13:48:30;3.20;;;2.88;;
12228;SDS011;6177;52.402;9.800;2024-03-02T13:50:56;2.40;;;2.30;;
12228;SDS011;6177;52.402;9.800;2024-03-02T13:53:22;2.30;;;2.20;;
12228;SDS011;6177;52.402;9.800;2024-03-02T13:55:48;2.70;;;2.60;;
12228;SDS011;6177;52.402;9.800;2024-03-02T13:58:14;2.10;;;2.00;;
12228;SDS011;6177;52.402;9.800;2024-03-02T14:00:39;1.63;;;1.60;;
12228;SDS011;6177;52.402;9.800;2024-03-02T14:03:08;2.08;;;2.00;;
12228;SDS011;6177;52.402;9.800;2024-03-02T14:05:34;2.13;;;2.03;;
12228;SDS011;6177;52.402;9.800;2024-03-02T14:08:01;2.38;;;2.35;;
12228;SDS011;6177;52.402;9.800;2024-03-02T14:10:26;2.22;;;2.13;;
12228;SDS011;6177;52.402;9.800;2024-03-02T14:12:56;2.10;;;2.10;;
12228;SDS011;6177;52.402;9.800;2024-03-02T14:15:22;2.50;;;2.40;;
12228;SDS011;6177;52.402;9.800;2024-03-02T14:17:48;2.70;;;2.60;;
12228;SDS011;6177;52.402;9.800;2024-03-02T14:20:15;2.55;;;2.45;;
12228;SDS011;6177;52.402;9.800;2024-03-02T14:22:49;2.35;;;2.25;;
12228;SDS011;6177;52.402;9.800;2024-03-02T14:25:14;2.63;;;2.53;;
12228;SDS011;6177;52.402;9.800;2024-03-02T14:27:40;2.75;;;2.65;;
12228;SDS011;6177;52.402;9.800;2024-03-02T14:30:06;2.92;;;2.83;;
12228;SDS011;6177;52.402;9.800;2024-03-02T14:32:32;8.70;;;8.02;;
12228;SDS011;6177;52.402;9.800;2024-03-02T14:34:57;2.78;;;2.60;;
12228;SDS011;6177;52.402;9.800;2024-03-02T14:37:23;2.70;;;2.50;;
12228;SDS011;6177;52.402;9.800;2024-03-02T14:39:48;2.50;;;2.40;;
12228;SDS011;6177;52.402;9.800;2024-03-02T14:42:14;3.45;;;2.95;;
12228;SDS011;6177;52.402;9.800;2024-03-02T14:44:40;2.63;;;2.53;;
12228;SDS011;6177;52.402;9.800;2024-03-02T14:47:05;3.30;;;3.10;;
12228;SDS011;6177;52.402;9.800;2024-03-02T14:49:32;2.75;;;2.65;;
12228;SDS011;6177;52.402;9.800;2024-03-02T14:52:01;2.60;;;2.50;;
12228;SDS011;6177;52.402;9.800;2024-03-02T14:54:26;3.55;;;3.35;;